sensor_id;sensor_type;location;lat;lon;timestamp;temperature;humidity
12551;DHT22;6341;51.434;6.792;2022-07-29T00:00:55;19.10;1.00
12551;DHT22;6341;51.434;6.792;2022-07-29T00:06:18;19.10;1.00
12551;DHT22;6341;51.434;6.792;2022-07-29T00:11:44;19.10;1.00
12551;DHT22;6341;51.434;6.792;2022-07-29T00:17:08;19.10;1.00
12551;DHT22;6341;51.434;6.792;2022-07-29T00:22:32;19.10;1.00
12551;DHT22;6341;51.434;6.792;2022-07-29T00:27:56;19.10;1.00
12551;DHT22;6341;51.434;6.792;2022-07-29T00:33:20;18.90;1.00
12551;DHT22;6341;51.434;6.792;2022-07-29T00:38:45;19.40;1.00
12551;DHT22;6341;51.434;6.792;2022-07-29T00:44:10;18.90;1.00
12551;DHT22;6341;51.434;6.792;2022-07-29T00:49:35;18.80;1.00
12551;DHT22;6341;51.434;6.792;2022-07-29T00:54:59;18.80;13.80
12551;DHT22;6341;51.434;6.792;2022-07-29T01:00:31;18.80;30.30
12551;DHT22;6341;51.434;6.792;2022-07-29T01:05:55;18.70;96.60
12551;DHT22;6341;51.434;6.792;2022-07-29T01:11:22;18.60;99.90
12551;DHT22;6341;51.434;6.792;2022-07-29T01:16:51;18.60;99.90
12551;DHT22;6341;51.434;6.792;2022-07-29T01:22:28;18.50;99.90
12551;DHT22;6341;51.434;6.792;2022-07-29T01:28:05;18.60;99.90
12551;DHT22;6341;51.434;6.792;2022-07-29T01:33:40;18.60;99.90
12551;DHT22;6341;51.434;6.792;2022-07-29T01:39:18;18.50;99.90
12551;DHT22;6341;51.434;6.792;2022-07-29T01:44:49;18.50;99.90
12551;DHT22;6341;51.434;6.792;2022-07-29T01:50:17;18.50;99.90
12551;DHT22;6341;51.434;6.792;2022-07-29T01:55:44;18.50;99.90
12551;DHT22;6341;51.434;6.792;2022-07-29T02:01:09;18.50;99.90
12551;DHT22;6341;51.434;6.792;2022-07-29T02:06:38;18.40;99.90
12551;DHT22;6341;51.434;6.792;2022-07-29T02:12:03;18.50;99.90
12551;DHT22;6341;51.434;6.792;2022-07-29T02:17:31;18.40;99.90
12551;DHT22;6341;51.434;6.792;2022-07-29T02:23:03;18.50;99.90
12551;DHT22;6341;51.434;6.792;2022-07-29T02:28:29;18.50;99.90
12551;DHT22;6341;51.434;6.792;2022-07-29T02:33:53;18.70;99.90
12551;DHT22;6341;51.434;6.792;2022-07-29T02:39:19;18.90;99.90
12551;DHT22;6341;51.434;6.792;2022-07-29T02:44:44;19.20;99.90
12551;DHT22;6341;51.434;6.792;2022-07-29T02:50:12;19.30;99.90
12551;DHT22;6341;51.434;6.792;2022-07-29T02:55:41;19.40;99.90
12551;DHT22;6341;51.434;6.792;2022-07-29T03:01:11;19.40;99.90
12551;DHT22;6341;51.434;6.792;2022-07-29T03:06:43;19.10;81.00
12551;DHT22;6341;51.434;6.792;2022-07-29T03:12:10;18.80;99.90
12551;DHT22;6341;51.434;6.792;2022-07-29T03:17:35;18.10;1.00
12551;DHT22;6341;51.434;6.792;2022-07-29T03:23:00;18.40;99.90
12551;DHT22;6341;51.434;6.792;2022-07-29T03:28:26;18.50;99.90
12551;DHT22;6341;51.434;6.792;2022-07-29T03:33:50;18.30;99.90
12551;DHT22;6341;51.434;6.792;2022-07-29T03:39:16;18.30;1.00
12551;DHT22;6341;51.434;6.792;2022-07-29T03:44:45;18.30;1.00
12551;DHT22;6341;51.434;6.792;2022-07-29T03:50:12;18.30;1.00
12551;DHT22;6341;51.434;6.792;2022-07-29T03:55:41;18.30;1.00
12551;DHT22;6341;51.434;6.792;2022-07-29T04:01:06;19.70;1.00
12551;DHT22;6341;51.434;6.792;2022-07-29T04:06:41;18.30;1.00
12551;DHT22;6341;51.434;6.792;2022-07-29T04:12:05;18.30;1.00
12551;DHT22;6341;51.434;6.792;2022-07-29T04:17:31;18.10;99.90
12551;DHT22;6341;51.434;6.792;2022-07-29T04:22:54;17.90;99.90
12551;DHT22;6341;51.434;6.792;2022-07-29T04:28:18;17.40;35.70
12551;DHT22;6341;51.434;6.792;2022-07-29T04:33:43;17.30;99.90
12551;DHT22;6341;51.434;6.792;2022-07-29T04:39:06;18.60;1.00
12551;DHT22;6341;51.434;6.792;2022-07-29T04:44:30;16.90;99.90
12551;DHT22;6341;51.434;6.792;2022-07-29T04:50:02;16.90;99.90
12551;DHT22;6341;51.434;6.792;2022-07-29T04:55:25;16.40;1.00
12551;DHT22;6341;51.434;6.792;2022-07-29T05:00:48;16.10;99.90
12551;DHT22;6341;51.434;6.792;2022-07-29T05:06:16;16.40;99.90
12551;DHT22;6341;51.434;6.792;2022-07-29T05:11:40;16.90;1.00
12551;DHT22;6341;51.434;6.792;2022-07-29T05:17:03;16.90;99.90
12551;DHT22;6341;51.434;6.792;2022-07-29T05:22:29;17.10;1.00
12551;DHT22;6341;51.434;6.792;2022-07-29T05:27:52;16.60;1.00
12551;DHT22;6341;51.434;6.792;2022-07-29T05:33:16;16.30;1.00
12551;DHT22;6341;51.434;6.792;2022-07-29T05:38:59;16.30;1.00
12551;DHT22;6341;51.434;6.792;2022-07-29T05:44:22;16.10;1.00
12551;DHT22;6341;51.434;6.792;2022-07-29T05:49:47;16.00;99.90
12551;DHT22;6341;51.434;6.792;2022-07-29T05:55:12;16.00;1.00
12551;DHT22;6341;51.434;6.792;2022-07-29T06:00:38;16.60;99.90
12551;DHT22;6341;51.434;6.792;2022-07-29T06:06:02;17.00;90.90
12551;DHT22;6341;51.434;6.792;2022-07-29T06:11:27;16.50;99.90
12551;DHT22;6341;51.434;6.792;2022-07-29T06:16:50;16.30;99.90
12551;DHT22;6341;51.434;6.792;2022-07-29T06:22:15;16.60;99.90
12551;DHT22;6341;51.434;6.792;2022-07-29T06:27:40;17.00;1.00
12551;DHT22;6341;51.434;6.792;2022-07-29T06:33:03;17.60;1.00
12551;DHT22;6341;51.434;6.792;2022-07-29T06:38:27;17.20;1.00
12551;DHT22;6341;51.434;6.792;2022-07-29T06:43:56;17.10;1.00
12551;DHT22;6341;51.434;6.792;2022-07-29T06:49:25;17.10;99.90
12551;DHT22;6341;51.434;6.792;2022-07-29T06:54:49;17.10;16.90
12551;DHT22;6341;51.434;6.792;2022-07-29T07:00:15;16.80;1.00
12551;DHT22;6341;51.434;6.792;2022-07-29T07:05:41;16.60;99.90
12551;DHT22;6341;51.434;6.792;2022-07-29T07:11:05;17.20;99.90
12551;DHT22;6341;51.434;6.792;2022-07-29T07:16:31;17.30;1.00
12551;DHT22;6341;51.434;6.792;2022-07-29T07:21:55;17.50;1.00
12551;DHT22;6341;51.434;6.792;2022-07-29T07:27:22;17.60;1.00
12551;DHT22;6341;51.434;6.792;2022-07-29T07:32:47;18.10;99.90
12551;DHT22;6341;51.434;6.792;2022-07-29T07:38:11;18.30;99.90
12551;DHT22;6341;51.434;6.792;2022-07-29T07:43:35;18.80;1.00
12551;DHT22;6341;51.434;6.792;2022-07-29T07:49:01;18.70;1.00
12551;DHT22;6341;51.434;6.792;2022-07-29T07:54:24;18.90;1.00
12551;DHT22;6341;51.434;6.792;2022-07-29T07:59:48;18.70;1.00
12551;DHT22;6341;51.434;6.792;2022-07-29T08:05:13;18.90;1.00
12551;DHT22;6341;51.434;6.792;2022-07-29T08:10:39;18.80;99.90
12551;DHT22;6341;51.434;6.792;2022-07-29T08:16:29;18.40;1.00
12551;DHT22;6341;51.434;6.792;2022-07-29T08:22:27;19.90;99.90
12551;DHT22;6341;51.434;6.792;2022-07-29T08:27:57;18.20;99.90
12551;DHT22;6341;51.434;6.792;2022-07-29T08:33:37;18.20;1.00
12551;DHT22;6341;51.434;6.792;2022-07-29T08:39:19;21.50;99.90
12551;DHT22;6341;51.434;6.792;2022-07-29T08:44:55;18.40;99.90
12551;DHT22;6341;51.434;6.792;2022-07-29T08:50:26;15.70;1.00
12551;DHT22;6341;51.434;6.792;2022-07-29T08:56:05;18.20;1.00
12551;DHT22;6341;51.434;6.792;2022-07-29T09:01:43;20.50;99.90
12551;DHT22;6341;51.434;6.792;2022-07-29T09:07:09;19.70;1.00
12551;DHT22;6341;51.434;6.792;2022-07-29T09:12:32;19.60;1.00
12551;DHT22;6341;51.434;6.792;2022-07-29T09:18:00;19.50;1.00
12551;DHT22;6341;51.434;6.792;2022-07-29T09:23:24;19.30;62.20
12551;DHT22;6341;51.434;6.792;2022-07-29T09:28:48;19.50;99.90
12551;DHT22;6341;51.434;6.792;2022-07-29T09:34:15;19.60;1.00
12551;DHT22;6341;51.434;6.792;2022-07-29T09:39:40;19.90;99.90
12551;DHT22;6341;51.434;6.792;2022-07-29T09:45:09;19.60;1.00
12551;DHT22;6341;51.434;6.792;2022-07-29T09:50:39;19.60;1.00
12551;DHT22;6341;51.434;6.792;2022-07-29T09:56:04;19.70;1.00
12551;DHT22;6341;51.434;6.792;2022-07-29T10:01:27;20.70;1.00
12551;DHT22;6341;51.434;6.792;2022-07-29T10:07:00;20.50;99.90
12551;DHT22;6341;51.434;6.792;2022-07-29T10:12:26;20.60;99.90
12551;DHT22;6341;51.434;6.792;2022-07-29T10:17:50;20.50;1.00
12551;DHT22;6341;51.434;6.792;2022-07-29T10:23:15;21.20;1.00
12551;DHT22;6341;51.434;6.792;2022-07-29T10:28:38;22.00;99.90
12551;DHT22;6341;51.434;6.792;2022-07-29T10:34:10;22.80;99.90
12551;DHT22;6341;51.434;6.792;2022-07-29T10:39:50;24.30;99.90
12551;DHT22;6341;51.434;6.792;2022-07-29T10:45:18;26.30;99.90
12551;DHT22;6341;51.434;6.792;2022-07-29T10:50:55;26.40;99.90
12551;DHT22;6341;51.434;6.792;2022-07-29T10:56:28;27.90;93.70
12551;DHT22;6341;51.434;6.792;2022-07-29T11:01:53;30.10;91.30
12551;DHT22;6341;51.434;6.792;2022-07-29T11:07:38;32.20;65.30
12551;DHT22;6341;51.434;6.792;2022-07-29T11:13:08;33.50;59.80
12551;DHT22;6341;51.434;6.792;2022-07-29T11:18:33;34.00;55.60
12551;DHT22;6341;51.434;6.792;2022-07-29T11:24:11;33.80;49.40
12551;DHT22;6341;51.434;6.792;2022-07-29T11:29:49;33.70;50.20
12551;DHT22;6341;51.434;6.792;2022-07-29T11:35:17;33.60;47.20
12551;DHT22;6341;51.434;6.792;2022-07-29T11:41:22;33.90;43.40
12551;DHT22;6341;51.434;6.792;2022-07-29T11:46:49;34.00;45.60
12551;DHT22;6341;51.434;6.792;2022-07-29T11:52:15;32.30;51.90
12551;DHT22;6341;51.434;6.792;2022-07-29T11:57:46;29.70;46.40
12551;DHT22;6341;51.434;6.792;2022-07-29T12:03:28;29.90;51.20
12551;DHT22;6341;51.434;6.792;2022-07-29T12:08:57;29.10;54.40
12551;DHT22;6341;51.434;6.792;2022-07-29T12:14:27;29.20;49.60
12551;DHT22;6341;51.434;6.792;2022-07-29T12:19:52;28.80;55.70
12551;DHT22;6341;51.434;6.792;2022-07-29T12:25:16;28.20;54.60
12551;DHT22;6341;51.434;6.792;2022-07-29T12:30:56;27.70;59.00
12551;DHT22;6341;51.434;6.792;2022-07-29T12:36:21;28.90;65.20
12551;DHT22;6341;51.434;6.792;2022-07-29T12:41:46;27.30;65.20
12551;DHT22;6341;51.434;6.792;2022-07-29T12:47:09;27.10;68.70
12551;DHT22;6341;51.434;6.792;2022-07-29T12:52:35;27.00;70.40
12551;DHT22;6341;51.434;6.792;2022-07-29T12:57:58;27.20;70.30
12551;DHT22;6341;51.434;6.792;2022-07-29T13:03:21;27.80;65.30
12551;DHT22;6341;51.434;6.792;2022-07-29T13:08:59;28.10;67.10
12551;DHT22;6341;51.434;6.792;2022-07-29T13:14:31;28.50;61.60
12551;DHT22;6341;51.434;6.792;2022-07-29T13:20:06;28.20;62.70
12551;DHT22;6341;51.434;6.792;2022-07-29T13:25:35;28.40;64.10
12551;DHT22;6341;51.434;6.792;2022-07-29T13:31:02;28.20;65.20
12551;DHT22;6341;51.434;6.792;2022-07-29T13:36:26;28.00;64.40
12551;DHT22;6341;51.434;6.792;2022-07-29T13:41:51;28.90;61.70
12551;DHT22;6341;51.434;6.792;2022-07-29T13:47:17;29.70;56.60
12551;DHT22;6341;51.434;6.792;2022-07-29T13:52:41;30.00;57.80
12551;DHT22;6341;51.434;6.792;2022-07-29T13:58:06;29.50;53.70
12551;DHT22;6341;51.434;6.792;2022-07-29T14:03:29;29.80;57.20
12551;DHT22;6341;51.434;6.792;2022-07-29T14:08:53;30.10;55.20
12551;DHT22;6341;51.434;6.792;2022-07-29T14:14:18;30.50;57.70
12551;DHT22;6341;51.434;6.792;2022-07-29T14:19:42;30.00;55.00
12551;DHT22;6341;51.434;6.792;2022-07-29T14:25:06;30.60;51.30
12551;DHT22;6341;51.434;6.792;2022-07-29T14:30:37;30.70;53.80
12551;DHT22;6341;51.434;6.792;2022-07-29T14:36:00;30.40;53.60
12551;DHT22;6341;51.434;6.792;2022-07-29T14:41:23;30.50;52.70
12551;DHT22;6341;51.434;6.792;2022-07-29T14:46:51;30.20;52.90
12551;DHT22;6341;51.434;6.792;2022-07-29T14:52:15;30.20;51.90
12551;DHT22;6341;51.434;6.792;2022-07-29T14:57:38;29.70;52.40
12551;DHT22;6341;51.434;6.792;2022-07-29T15:03:04;29.70;52.40
12551;DHT22;6341;51.434;6.792;2022-07-29T15:08:32;29.60;51.50
12551;DHT22;6341;51.434;6.792;2022-07-29T15:13:55;30.00;51.00
12551;DHT22;6341;51.434;6.792;2022-07-29T15:19:20;29.80;51.50
12551;DHT22;6341;51.434;6.792;2022-07-29T15:24:43;29.80;52.20
12551;DHT22;6341;51.434;6.792;2022-07-29T15:30:08;29.80;52.20
12551;DHT22;6341;51.434;6.792;2022-07-29T15:35:55;29.40;52.40
12551;DHT22;6341;51.434;6.792;2022-07-29T15:41:19;29.50;51.60
12551;DHT22;6341;51.434;6.792;2022-07-29T15:46:43;29.50;52.70
12551;DHT22;6341;51.434;6.792;2022-07-29T15:52:25;29.40;53.00
12551;DHT22;6341;51.434;6.792;2022-07-29T15:57:49;28.10;50.10
12551;DHT22;6341;51.434;6.792;2022-07-29T16:03:13;29.10;51.30
12551;DHT22;6341;51.434;6.792;2022-07-29T16:08:38;28.60;51.80
12551;DHT22;6341;51.434;6.792;2022-07-29T16:14:02;28.40;53.10
12551;DHT22;6341;51.434;6.792;2022-07-29T16:19:26;28.00;53.10
12551;DHT22;6341;51.434;6.792;2022-07-29T16:24:50;27.60;55.60
12551;DHT22;6341;51.434;6.792;2022-07-29T16:30:14;27.40;56.30
12551;DHT22;6341;51.434;6.792;2022-07-29T16:35:38;27.10;56.90
12551;DHT22;6341;51.434;6.792;2022-07-29T16:41:03;27.10;57.10
12551;DHT22;6341;51.434;6.792;2022-07-29T16:46:26;27.70;57.10
12551;DHT22;6341;51.434;6.792;2022-07-29T16:51:51;27.30;59.30
12551;DHT22;6341;51.434;6.792;2022-07-29T16:57:16;27.40;59.20
12551;DHT22;6341;51.434;6.792;2022-07-29T17:02:39;27.00;61.50
12551;DHT22;6341;51.434;6.792;2022-07-29T17:08:03;26.70;62.30
12551;DHT22;6341;51.434;6.792;2022-07-29T17:13:28;26.20;62.90
12551;DHT22;6341;51.434;6.792;2022-07-29T17:18:52;25.90;65.50
12551;DHT22;6341;51.434;6.792;2022-07-29T17:24:15;23.50;66.40
12551;DHT22;6341;51.434;6.792;2022-07-29T17:29:41;25.50;69.10
12551;DHT22;6341;51.434;6.792;2022-07-29T17:35:06;25.50;69.40
12551;DHT22;6341;51.434;6.792;2022-07-29T17:40:50;25.40;70.00
12551;DHT22;6341;51.434;6.792;2022-07-29T17:46:16;25.30;71.80
12551;DHT22;6341;51.434;6.792;2022-07-29T17:51:40;25.10;70.40
12551;DHT22;6341;51.434;6.792;2022-07-29T17:57:03;25.00;70.60
12551;DHT22;6341;51.434;6.792;2022-07-29T18:02:28;27.50;73.50
12551;DHT22;6341;51.434;6.792;2022-07-29T18:07:52;24.70;70.40
12551;DHT22;6341;51.434;6.792;2022-07-29T18:13:17;24.50;72.90
12551;DHT22;6341;51.434;6.792;2022-07-29T18:18:42;24.20;76.50
12551;DHT22;6341;51.434;6.792;2022-07-29T18:24:07;24.20;78.70
12551;DHT22;6341;51.434;6.792;2022-07-29T18:29:32;24.00;80.00
12551;DHT22;6341;51.434;6.792;2022-07-29T18:34:57;24.00;81.30
12551;DHT22;6341;51.434;6.792;2022-07-29T18:40:23;23.90;81.80
12551;DHT22;6341;51.434;6.792;2022-07-29T18:45:50;23.70;83.80
12551;DHT22;6341;51.434;6.792;2022-07-29T18:51:15;23.50;84.70
12551;DHT22;6341;51.434;6.792;2022-07-29T18:56:39;23.40;86.20
12551;DHT22;6341;51.434;6.792;2022-07-29T19:02:02;23.20;87.50
12551;DHT22;6341;51.434;6.792;2022-07-29T19:07:27;22.80;90.40
12551;DHT22;6341;51.434;6.792;2022-07-29T19:12:51;22.60;91.60
12551;DHT22;6341;51.434;6.792;2022-07-29T19:18:15;22.30;94.00
12551;DHT22;6341;51.434;6.792;2022-07-29T19:23:40;22.10;95.40
12551;DHT22;6341;51.434;6.792;2022-07-29T19:29:23;22.00;97.40
12551;DHT22;6341;51.434;6.792;2022-07-29T19:34:47;21.80;99.60
12551;DHT22;6341;51.434;6.792;2022-07-29T19:40:27;21.70;99.90
12551;DHT22;6341;51.434;6.792;2022-07-29T19:45:51;21.70;99.90
12551;DHT22;6341;51.434;6.792;2022-07-29T19:51:14;21.50;99.90
12551;DHT22;6341;51.434;6.792;2022-07-29T19:56:40;21.50;99.90
12551;DHT22;6341;51.434;6.792;2022-07-29T20:02:06;21.40;99.90
12551;DHT22;6341;51.434;6.792;2022-07-29T20:07:32;21.10;99.90
12551;DHT22;6341;51.434;6.792;2022-07-29T20:12:57;21.00;99.90
12551;DHT22;6341;51.434;6.792;2022-07-29T20:18:20;21.10;99.90
12551;DHT22;6341;51.434;6.792;2022-07-29T20:23:44;20.80;99.90
12551;DHT22;6341;51.434;6.792;2022-07-29T20:29:09;20.70;99.90
12551;DHT22;6341;51.434;6.792;2022-07-29T20:34:32;20.60;99.90
12551;DHT22;6341;51.434;6.792;2022-07-29T20:39:57;20.70;99.90
12551;DHT22;6341;51.434;6.792;2022-07-29T20:45:22;20.40;99.90
12551;DHT22;6341;51.434;6.792;2022-07-29T20:50:46;20.60;99.90
12551;DHT22;6341;51.434;6.792;2022-07-29T20:56:09;20.60;99.90
12551;DHT22;6341;51.434;6.792;2022-07-29T21:01:35;20.50;99.90
12551;DHT22;6341;51.434;6.792;2022-07-29T21:06:58;20.30;99.90
12551;DHT22;6341;51.434;6.792;2022-07-29T21:12:24;20.10;99.90
12551;DHT22;6341;51.434;6.792;2022-07-29T21:17:49;20.10;99.90
12551;DHT22;6341;51.434;6.792;2022-07-29T21:23:20;17.20;99.90
12551;DHT22;6341;51.434;6.792;2022-07-29T21:28:44;20.10;99.90
12551;DHT22;6341;51.434;6.792;2022-07-29T21:34:13;20.00;99.90
12551;DHT22;6341;51.434;6.792;2022-07-29T21:39:36;20.10;99.90
12551;DHT22;6341;51.434;6.792;2022-07-29T21:45:00;20.20;99.90
12551;DHT22;6341;51.434;6.792;2022-07-29T21:50:24;20.20;99.90
12551;DHT22;6341;51.434;6.792;2022-07-29T21:55:49;19.90;99.90
12551;DHT22;6341;51.434;6.792;2022-07-29T22:01:14;19.80;99.90
12551;DHT22;6341;51.434;6.792;2022-07-29T22:06:40;19.90;99.90
12551;DHT22;6341;51.434;6.792;2022-07-29T22:12:04;20.00;99.90
12551;DHT22;6341;51.434;6.792;2022-07-29T22:17:27;19.90;99.90
12551;DHT22;6341;51.434;6.792;2022-07-29T22:22:53;20.00;99.90
12551;DHT22;6341;51.434;6.792;2022-07-29T22:28:16;19.90;99.90
12551;DHT22;6341;51.434;6.792;2022-07-29T22:33:40;20.00;99.90
12551;DHT22;6341;51.434;6.792;2022-07-29T22:39:05;20.00;99.90
12551;DHT22;6341;51.434;6.792;2022-07-29T22:44:28;20.10;99.90
12551;DHT22;6341;51.434;6.792;2022-07-29T22:49:52;20.10;99.90
12551;DHT22;6341;51.434;6.792;2022-07-29T22:55:17;20.10;99.90
12551;DHT22;6341;51.434;6.792;2022-07-29T23:00:41;20.10;99.90
12551;DHT22;6341;51.434;6.792;2022-07-29T23:06:06;20.00;99.90
12551;DHT22;6341;51.434;6.792;2022-07-29T23:11:30;19.80;99.90
12551;DHT22;6341;51.434;6.792;2022-07-29T23:16:54;19.50;95.30
12551;DHT22;6341;51.434;6.792;2022-07-29T23:22:17;19.50;1.00
12551;DHT22;6341;51.434;6.792;2022-07-29T23:27:42;19.40;9.40
12551;DHT22;6341;51.434;6.792;2022-07-29T23:33:06;19.30;1.00
12551;DHT22;6341;51.434;6.792;2022-07-29T23:38:29;19.10;68.20
12551;DHT22;6341;51.434;6.792;2022-07-29T23:43:54;18.80;99.90
12551;DHT22;6341;51.434;6.792;2022-07-29T23:49:18;18.70;52.10
12551;DHT22;6341;51.434;6.792;2022-07-29T23:54:41;18.70;99.90
